createdAt,value
2023-02-03T00:00:49.755Z,3.27
2023-02-03T00:01:49.773Z,3.20
2023-02-03T00:02:49.725Z,3.27
2023-02-03T00:03:49.688Z,3.27
2023-02-03T00:04:49.683Z,3.26
2023-02-03T00:05:49.694Z,3.25
2023-02-03T00:06:49.657Z,3.15
2023-02-03T00:07:49.649Z,3.30
2023-02-03T00:08:49.638Z,3.23
2023-02-03T00:09:49.624Z,3.22
2023-02-03T00:10:49.640Z,3.27
2023-02-03T00:11:49.609Z,3.22
2023-02-03T00:12:49.624Z,3.33
2023-02-03T00:13:49.582Z,3.35
2023-02-03T00:14:49.598Z,3.32
2023-02-03T00:15:49.564Z,3.29
2023-02-03T00:16:49.550Z,3.22
2023-02-03T00:17:49.568Z,3.26
2023-02-03T00:18:49.543Z,3.30
2023-02-03T00:19:49.517Z,3.22
2023-02-03T00:20:49.532Z,3.33
2023-02-03T00:21:49.494Z,3.36
2023-02-03T00:22:49.491Z,3.33
2023-02-03T00:23:49.481Z,3.33
2023-02-03T00:24:49.462Z,3.32
2023-02-03T00:25:49.479Z,3.33
2023-02-03T00:26:49.440Z,3.36
2023-02-03T00:27:49.518Z,3.27
2023-02-03T00:28:49.420Z,3.36
2023-02-03T00:29:49.409Z,3.32
2023-02-03T00:30:49.441Z,3.44
2023-02-03T00:31:49.594Z,3.36
2023-02-03T00:32:49.405Z,3.32
2023-02-03T00:33:49.366Z,3.41
2023-02-03T00:34:49.353Z,3.42
2023-02-03T00:35:49.381Z,3.41
2023-02-03T00:36:49.336Z,3.44
2023-02-03T00:37:49.347Z,3.37
2023-02-03T00:38:49.317Z,3.44
2023-02-03T00:39:49.304Z,3.54
2023-02-03T00:40:49.321Z,3.35
2023-02-03T00:41:49.281Z,3.37
2023-02-03T00:42:49.272Z,3.46
2023-02-03T00:43:49.285Z,3.48
2023-02-03T00:44:49.245Z,3.41
2023-02-03T00:45:49.275Z,3.51
2023-02-03T00:46:49.288Z,3.41
2023-02-03T00:47:49.219Z,3.45
2023-02-03T00:48:49.208Z,3.41
2023-02-03T00:49:49.194Z,3.36
2023-02-03T00:50:49.187Z,3.41
2023-02-03T00:51:49.243Z,3.41
2023-02-03T00:52:49.183Z,3.42
2023-02-03T00:53:49.212Z,3.41
2023-02-03T00:54:49.137Z,3.48
2023-02-03T00:55:49.153Z,3.42
2023-02-03T00:56:49.110Z,3.48
2023-02-03T00:57:49.110Z,3.45
2023-02-03T00:58:49.099Z,3.45
2023-02-03T00:59:49.107Z,3.49
2023-02-03T01:00:49.112Z,3.48
2023-02-03T01:01:49.062Z,3.48
2023-02-03T01:02:49.076Z,3.49
2023-02-03T01:03:49.055Z,3.48
2023-02-03T01:04:49.053Z,3.51
2023-02-03T01:05:49.037Z,3.51
2023-02-03T01:06:49.119Z,3.51
2023-02-03T01:07:49.012Z,3.63
2023-02-03T01:08:49.009Z,3.49
2023-02-03T01:09:49.001Z,3.49
2023-02-03T01:10:48.996Z,3.62
2023-02-03T01:11:48.958Z,3.62
2023-02-03T01:12:48.949Z,3.62
2023-02-03T01:13:48.935Z,3.60
2023-02-03T01:14:48.920Z,3.62
2023-02-03T01:15:48.941Z,3.60
2023-02-03T01:16:48.931Z,3.60
2023-02-03T01:17:48.889Z,3.64
2023-02-03T01:18:48.904Z,3.66
2023-02-03T01:19:48.870Z,3.64
2023-02-03T01:20:48.883Z,3.70
2023-02-03T01:21:48.849Z,3.67
2023-02-03T01:22:48.862Z,3.66
2023-02-03T01:23:48.824Z,3.67
2023-02-03T01:24:48.809Z,3.70
2023-02-03T01:25:48.820Z,3.70
2023-02-03T01:26:48.822Z,3.63
2023-02-03T01:27:48.841Z,3.70
2023-02-03T01:28:48.767Z,3.69
2023-02-03T01:29:48.757Z,3.81
2023-02-03T01:30:48.832Z,3.67
2023-02-03T01:31:49.023Z,3.74
2023-02-03T01:32:48.723Z,3.74
2023-02-03T01:33:48.843Z,3.82
2023-02-03T01:34:48.724Z,3.76
2023-02-03T01:35:48.704Z,3.85
2023-02-03T01:36:48.708Z,3.82
2023-02-03T01:37:48.679Z,3.84
2023-02-03T01:38:48.667Z,3.88
2023-02-03T01:39:48.661Z,3.81
2023-02-03T01:40:48.643Z,3.81
2023-02-03T01:41:48.661Z,3.88
2023-02-03T01:42:48.624Z,3.81
2023-02-03T01:43:48.605Z,3.82
2023-02-03T01:44:48.593Z,3.82
2023-02-03T01:45:48.613Z,3.80
2023-02-03T01:46:48.599Z,3.80
2023-02-03T01:47:48.572Z,3.84
2023-02-03T01:48:48.553Z,3.81
2023-02-03T01:49:48.541Z,3.87
2023-02-03T01:50:48.572Z,3.84
2023-02-03T01:51:48.555Z,3.90
2023-02-03T01:52:48.506Z,3.85
2023-02-03T01:53:48.501Z,3.84
2023-02-03T01:54:48.486Z,3.96
2023-02-03T01:55:48.479Z,3.92
2023-02-03T01:56:48.499Z,4.00
2023-02-03T01:57:48.457Z,3.90
2023-02-03T01:58:48.438Z,3.90
2023-02-03T01:59:48.429Z,3.92
2023-02-03T02:00:48.423Z,3.96
2023-02-03T02:01:48.455Z,3.99
2023-02-03T02:02:48.516Z,3.88
2023-02-03T02:03:48.395Z,3.85
2023-02-03T02:04:48.373Z,3.94
2023-02-03T02:05:48.374Z,4.06
2023-02-03T02:06:48.384Z,3.99
2023-02-03T02:07:48.370Z,4.02
2023-02-03T02:08:48.335Z,3.92
2023-02-03T02:09:48.354Z,4.02
2023-02-03T02:10:48.315Z,4.00
2023-02-03T02:11:48.313Z,4.02
2023-02-03T02:12:48.312Z,4.03
2023-02-03T02:13:48.277Z,4.00
2023-02-03T02:14:48.268Z,4.00
2023-02-03T02:15:48.272Z,4.06
2023-02-03T02:16:48.257Z,4.00
2023-02-03T02:17:48.259Z,4.03
2023-02-03T02:18:48.239Z,4.05
2023-02-03T02:19:48.223Z,4.03
2023-02-03T02:20:48.223Z,4.05
2023-02-03T02:21:48.226Z,4.02
2023-02-03T02:22:48.207Z,4.06
2023-02-03T02:23:48.177Z,4.03
2023-02-03T02:24:48.163Z,4.05
2023-02-03T02:25:48.194Z,4.05
2023-02-03T02:26:48.136Z,4.08
2023-02-03T02:27:48.208Z,4.08
2023-02-03T02:28:48.151Z,4.08
2023-02-03T02:29:48.109Z,4.09
2023-02-03T02:30:48.236Z,4.05
2023-02-03T02:31:48.261Z,4.08
2023-02-03T02:32:48.126Z,4.06
2023-02-03T02:33:48.069Z,4.09
2023-02-03T02:34:48.065Z,4.05
2023-02-03T02:35:48.055Z,4.10
2023-02-03T02:36:48.027Z,4.18
2023-02-03T02:37:48.049Z,4.05
2023-02-03T02:38:48.045Z,4.08
2023-02-03T02:39:48.005Z,4.10
2023-02-03T02:40:47.993Z,4.08
2023-02-03T02:41:47.980Z,4.06
2023-02-03T02:42:47.985Z,4.10
2023-02-03T02:43:47.958Z,4.12
2023-02-03T02:44:47.967Z,4.16
2023-02-03T02:45:47.936Z,4.12
2023-02-03T02:46:47.928Z,4.08
2023-02-03T02:47:47.915Z,4.12
2023-02-03T02:48:47.907Z,4.16
2023-02-03T02:49:47.928Z,4.16
2023-02-03T02:50:47.883Z,4.17
2023-02-03T02:51:47.881Z,4.21
2023-02-03T02:52:47.859Z,4.20
2023-02-03T02:53:47.887Z,4.23
2023-02-03T02:54:47.891Z,4.23
2023-02-03T02:55:47.854Z,4.20
2023-02-03T02:56:47.816Z,4.23
2023-02-03T02:57:47.824Z,4.17
2023-02-03T02:58:47.799Z,4.17
2023-02-03T02:59:47.823Z,4.12
2023-02-03T03:00:47.780Z,4.21
2023-02-03T03:01:47.828Z,4.17
2023-02-03T03:02:47.750Z,4.23
2023-02-03T03:03:47.752Z,4.21
2023-02-03T03:04:47.829Z,4.16
2023-02-03T03:05:47.719Z,4.18
2023-02-03T03:06:47.721Z,4.18
2023-02-03T03:07:47.700Z,4.20
2023-02-03T03:08:47.687Z,4.24
2023-02-03T03:09:47.695Z,4.17
2023-02-03T03:10:47.755Z,4.21
2023-02-03T03:11:47.657Z,4.24
2023-02-03T03:12:47.646Z,4.23
2023-02-03T03:13:47.634Z,4.18
2023-02-03T03:14:47.641Z,4.18
2023-02-03T03:15:47.647Z,4.18
2023-02-03T03:16:47.607Z,4.20
2023-02-03T03:17:47.600Z,4.23
2023-02-03T03:18:47.588Z,4.17
2023-02-03T03:19:47.636Z,4.26
2023-02-03T03:20:47.558Z,4.13
2023-02-03T03:21:47.579Z,4.18
2023-02-03T03:22:47.531Z,4.21
2023-02-03T03:23:47.534Z,4.24
2023-02-03T03:24:47.542Z,4.24
2023-02-03T03:25:47.501Z,4.20
2023-02-03T03:26:47.536Z,4.20
2023-02-03T03:27:47.537Z,4.18
2023-02-03T03:28:47.470Z,4.26
2023-02-03T03:29:47.463Z,4.21
2023-02-03T03:30:47.525Z,4.28
2023-02-03T03:31:47.504Z,4.26
2023-02-03T03:32:47.433Z,4.20
2023-02-03T03:33:47.436Z,4.23
2023-02-03T03:34:47.412Z,4.23
2023-02-03T03:35:47.428Z,4.20
2023-02-03T03:36:47.389Z,4.23
2023-02-03T03:37:47.376Z,4.24
2023-02-03T03:38:47.364Z,4.21
2023-02-03T03:39:47.396Z,4.21
2023-02-03T03:40:47.344Z,4.21
2023-02-03T03:41:47.344Z,4.24
2023-02-03T03:42:47.379Z,4.20
2023-02-03T03:43:47.312Z,4.24
2023-02-03T03:44:47.338Z,4.23
2023-02-03T03:45:47.290Z,4.23
2023-02-03T03:46:47.421Z,4.24
2023-02-03T03:47:47.267Z,4.27
2023-02-03T03:48:47.257Z,4.26
2023-02-03T03:49:47.249Z,4.26
2023-02-03T03:50:47.255Z,4.24
2023-02-03T03:51:47.266Z,4.27
2023-02-03T03:52:47.219Z,4.21
2023-02-03T03:53:47.204Z,4.34
2023-02-03T03:54:47.188Z,4.26
2023-02-03T03:55:47.186Z,4.23
2023-02-03T03:56:47.198Z,4.21
2023-02-03T03:57:47.159Z,4.26
2023-02-03T03:58:47.166Z,4.24
2023-02-03T03:59:47.147Z,4.24
2023-02-03T04:00:47.152Z,4.24
2023-02-03T04:01:47.245Z,4.27
2023-02-03T04:02:47.273Z,4.21
2023-02-03T04:03:47.097Z,4.26
2023-02-03T04:04:47.085Z,4.30
2023-02-03T04:05:47.086Z,4.21
2023-02-03T04:06:47.083Z,4.28
2023-02-03T04:07:47.087Z,4.20
2023-02-03T04:08:47.046Z,4.23
2023-02-03T04:09:47.042Z,4.24
2023-02-03T04:10:47.028Z,4.27
2023-02-03T04:11:47.014Z,4.28
2023-02-03T04:12:47.009Z,4.30
2023-02-03T04:13:47.020Z,4.34
2023-02-03T04:14:46.997Z,4.28
2023-02-03T04:15:47.066Z,4.38
2023-02-03T04:16:46.960Z,4.42
2023-02-03T04:17:46.974Z,4.31
2023-02-03T04:18:46.933Z,4.36
2023-02-03T04:19:46.950Z,4.30
2023-02-03T04:20:46.914Z,4.35
2023-02-03T04:21:46.907Z,4.35
2023-02-03T04:22:46.890Z,4.34
2023-02-03T04:23:46.920Z,4.34
2023-02-03T04:24:46.881Z,4.34
2023-02-03T04:25:46.892Z,4.35
2023-02-03T04:26:46.846Z,4.38
2023-02-03T04:27:46.901Z,4.45
2023-02-03T04:28:46.859Z,4.34
2023-02-03T04:29:46.823Z,4.35
2023-02-03T04:30:46.897Z,4.34
2023-02-03T04:31:46.864Z,4.28
2023-02-03T04:32:46.783Z,4.43
2023-02-03T04:33:46.809Z,4.38
2023-02-03T04:34:46.791Z,4.48
2023-02-03T04:35:46.758Z,4.39
2023-02-03T04:36:46.747Z,4.45
2023-02-03T04:37:46.747Z,4.39
2023-02-03T04:38:46.760Z,4.46
2023-02-03T04:39:46.715Z,4.41
2023-02-03T04:40:46.743Z,4.36
2023-02-03T04:41:46.694Z,4.43
2023-02-03T04:42:46.684Z,4.43
2023-02-03T04:43:46.698Z,4.43
2023-02-03T04:44:46.660Z,4.39
2023-02-03T04:45:46.697Z,4.53
2023-02-03T04:46:46.689Z,4.42
2023-02-03T04:47:46.622Z,4.48
2023-02-03T04:48:46.635Z,4.46
2023-02-03T04:49:46.628Z,4.45
2023-02-03T04:50:46.602Z,4.45
2023-02-03T04:51:46.609Z,4.46
2023-02-03T04:52:46.582Z,4.51
2023-02-03T04:53:46.565Z,4.48
2023-02-03T04:54:46.559Z,4.54
2023-02-03T04:55:46.545Z,4.45
2023-02-03T04:56:46.552Z,4.45
2023-02-03T04:57:46.517Z,4.54
2023-02-03T04:58:46.521Z,4.56
2023-02-03T04:59:46.518Z,4.56
2023-02-03T05:00:46.538Z,4.51
2023-02-03T05:01:46.504Z,4.59
2023-02-03T05:02:46.494Z,4.48
2023-02-03T05:03:46.484Z,4.51
2023-02-03T05:04:46.496Z,4.57
2023-02-03T05:05:46.435Z,4.59
2023-02-03T05:06:46.457Z,4.54
2023-02-03T05:07:46.416Z,4.60
2023-02-03T05:08:46.412Z,4.61
2023-02-03T05:09:46.421Z,4.60
2023-02-03T05:10:46.388Z,4.61
2023-02-03T05:11:46.379Z,4.56
2023-02-03T05:12:46.373Z,4.64
2023-02-03T05:13:46.347Z,4.61
2023-02-03T05:14:46.366Z,4.66
2023-02-03T05:15:46.337Z,4.61
2023-02-03T05:16:46.620Z,4.63
2023-02-03T05:17:46.312Z,4.64
2023-02-03T05:18:46.330Z,4.59
2023-02-03T05:19:46.322Z,4.63
2023-02-03T05:20:46.280Z,4.64
2023-02-03T05:21:46.267Z,4.61
2023-02-03T05:22:46.257Z,4.57
2023-02-03T05:23:46.253Z,4.63
2023-02-03T05:24:46.243Z,4.64
2023-02-03T05:25:46.253Z,4.64
2023-02-03T05:26:46.246Z,4.75
2023-02-03T05:27:46.258Z,4.71
2023-02-03T05:28:46.195Z,4.78
2023-02-03T05:29:46.180Z,4.79
2023-02-03T05:30:46.180Z,4.72
2023-02-03T05:31:46.267Z,4.72
2023-02-03T05:32:46.187Z,4.75
2023-02-03T05:33:46.138Z,4.78
2023-02-03T05:34:46.154Z,4.72
2023-02-03T05:35:46.116Z,4.72
2023-02-03T05:36:46.110Z,4.77
2023-02-03T05:37:46.132Z,4.74
2023-02-03T05:38:46.088Z,4.77
2023-02-03T05:39:46.076Z,4.77
2023-02-03T05:40:46.073Z,4.83
2023-02-03T05:41:46.050Z,4.78
2023-02-03T05:42:46.076Z,4.85
2023-02-03T05:43:46.028Z,4.79
2023-02-03T05:44:46.026Z,4.85
2023-02-03T05:45:46.068Z,4.75
2023-02-03T05:46:46.005Z,4.82
2023-02-03T05:47:46.019Z,4.83
2023-02-03T05:48:45.983Z,4.74
2023-02-03T05:49:45.973Z,4.93
2023-02-03T05:50:45.977Z,4.89
2023-02-03T05:51:45.964Z,4.96
2023-02-03T05:52:45.936Z,4.89
2023-02-03T05:53:45.945Z,4.89
2023-02-03T05:54:45.953Z,4.93
2023-02-03T05:55:45.899Z,4.98
2023-02-03T05:56:45.888Z,4.96
2023-02-03T05:57:45.880Z,4.98
2023-02-03T05:58:45.893Z,4.94
2023-02-03T05:59:45.856Z,5.01
2023-02-03T06:00:45.850Z,4.96
2023-02-03T06:01:45.834Z,4.94
2023-02-03T06:02:45.823Z,4.94
2023-02-03T06:03:46.516Z,4.94
2023-02-03T06:04:45.832Z,5.00
2023-02-03T06:05:45.789Z,4.97
2023-02-03T06:06:45.804Z,5.00
2023-02-03T06:07:45.788Z,5.00
2023-02-03T06:08:45.765Z,5.00
2023-02-03T06:09:45.742Z,5.00
2023-02-03T06:10:45.775Z,4.97
2023-02-03T06:11:45.729Z,5.01
2023-02-03T06:12:45.719Z,5.11
2023-02-03T06:13:45.696Z,5.01
2023-02-03T06:14:45.712Z,5.11
2023-02-03T06:15:45.680Z,5.12
2023-02-03T06:16:45.731Z,5.06
2023-02-03T06:17:45.681Z,5.11
2023-02-03T06:18:45.647Z,5.18
2023-02-03T06:19:45.642Z,5.16
2023-02-03T06:20:45.746Z,5.14
2023-02-03T06:21:45.682Z,5.12
2023-02-03T06:22:45.698Z,5.14
2023-02-03T06:23:45.597Z,5.06
2023-02-03T06:24:45.584Z,5.21
2023-02-03T06:25:45.561Z,5.14
2023-02-03T06:26:45.561Z,5.19
2023-02-03T06:27:45.666Z,5.18
2023-02-03T06:28:45.549Z,5.18
2023-02-03T06:29:45.524Z,5.29
2023-02-03T06:30:45.659Z,5.19
2023-02-03T06:31:45.689Z,5.21
2023-02-03T06:32:45.509Z,5.29
2023-02-03T06:33:45.511Z,5.24
2023-02-03T06:34:45.465Z,5.27
2023-02-03T06:35:45.459Z,5.29
2023-02-03T06:36:45.446Z,5.34
2023-02-03T06:37:45.437Z,5.32
2023-02-03T06:38:45.468Z,5.25
2023-02-03T06:39:45.409Z,5.29
2023-02-03T06:40:45.411Z,5.30
2023-02-03T06:41:45.391Z,5.33
2023-02-03T06:42:45.378Z,5.41
2023-02-03T06:43:45.397Z,5.32
2023-02-03T06:44:45.360Z,5.33
2023-02-03T06:45:45.395Z,5.41
2023-02-03T06:46:45.356Z,5.43
2023-02-03T06:47:45.327Z,5.41
2023-02-03T06:48:45.335Z,5.44
2023-02-03T06:49:45.312Z,5.43
2023-02-03T06:50:48.229Z,5.50
2023-02-03T06:51:45.283Z,5.44
2023-02-03T06:52:45.273Z,5.48
2023-02-03T06:53:45.287Z,5.41
2023-02-03T06:54:45.273Z,5.41
2023-02-03T06:55:45.230Z,5.52
2023-02-03T06:56:45.228Z,5.54
2023-02-03T06:57:45.219Z,5.50
2023-02-03T06:58:45.223Z,5.51
2023-02-03T06:59:45.192Z,5.52
2023-02-03T07:00:45.191Z,5.57
2023-02-03T07:01:45.226Z,5.57
2023-02-03T07:02:45.251Z,5.57
2023-02-03T07:03:45.204Z,5.59
2023-02-03T07:04:45.186Z,5.65
2023-02-03T07:05:45.131Z,5.61
2023-02-03T07:06:45.125Z,5.59
2023-02-03T07:07:45.102Z,5.59
2023-02-03T07:08:45.105Z,5.61
2023-02-03T07:09:45.109Z,5.65
2023-02-03T07:10:45.093Z,5.66
2023-02-03T07:11:45.069Z,5.67
2023-02-03T07:12:45.087Z,5.66
2023-02-03T07:13:45.046Z,5.72
2023-02-03T07:14:45.040Z,5.72
2023-02-03T07:15:45.067Z,5.79
2023-02-03T07:16:45.021Z,5.82
2023-02-03T07:17:45.039Z,5.84
2023-02-03T07:18:47.957Z,5.79
2023-02-03T07:19:46.105Z,5.79
2023-02-03T07:20:44.961Z,5.75
2023-02-03T07:21:44.953Z,5.84
2023-02-03T07:22:44.941Z,5.82
2023-02-03T07:23:44.955Z,5.87
2023-02-03T07:24:44.920Z,5.88
2023-02-03T07:25:44.911Z,5.82
2023-02-03T07:26:44.919Z,5.79
2023-02-03T07:27:44.908Z,5.88
2023-02-03T07:28:44.907Z,5.97
2023-02-03T07:29:44.860Z,5.85
2023-02-03T07:30:44.895Z,5.97
2023-02-03T07:31:45.043Z,5.97
2023-02-03T07:32:44.835Z,5.94
2023-02-03T07:33:44.833Z,5.95
2023-02-03T07:34:44.814Z,5.98
2023-02-03T07:35:44.796Z,5.95
2023-02-03T07:36:44.824Z,6.03
2023-02-03T07:37:44.772Z,6.08
2023-02-03T07:38:44.762Z,5.97
2023-02-03T07:39:44.746Z,6.03
2023-02-03T07:40:44.742Z,6.08
2023-02-03T07:41:44.753Z,6.08
2023-02-03T07:42:44.751Z,6.12
2023-02-03T07:43:44.706Z,6.13
2023-02-03T07:44:44.722Z,6.12
2023-02-03T07:45:44.684Z,6.19
2023-02-03T07:46:44.863Z,6.12
2023-02-03T07:47:44.677Z,6.19
2023-02-03T07:48:44.652Z,6.19
2023-02-03T07:49:44.644Z,6.18
2023-02-03T07:50:44.629Z,6.13
2023-02-03T07:51:44.620Z,6.18
2023-02-03T07:52:44.624Z,6.16
2023-02-03T07:53:44.593Z,6.21
2023-02-03T07:54:44.608Z,6.21
2023-02-03T07:55:44.571Z,6.19
2023-02-03T07:56:44.595Z,6.30
2023-02-03T07:57:44.572Z,6.32
2023-02-03T07:58:44.565Z,6.40
2023-02-03T07:59:44.530Z,6.37
2023-02-03T08:00:44.520Z,6.32
2023-02-03T08:01:44.604Z,6.37
2023-02-03T08:02:44.499Z,6.35
2023-02-03T08:03:44.492Z,6.34
2023-02-03T08:04:44.530Z,6.40
2023-02-03T08:05:44.471Z,6.32
2023-02-03T08:06:44.487Z,6.34
2023-02-03T08:07:44.441Z,6.32
2023-02-03T08:08:44.432Z,6.32
2023-02-03T08:09:44.428Z,6.42
2023-02-03T08:10:44.421Z,6.32
2023-02-03T08:11:44.424Z,6.45
2023-02-03T08:12:45.437Z,6.38
2023-02-03T08:13:44.377Z,6.40
2023-02-03T08:14:44.393Z,6.46
2023-02-03T08:15:44.351Z,6.46
2023-02-03T08:16:44.376Z,6.47
2023-02-03T08:17:44.435Z,6.46
2023-02-03T08:18:44.323Z,6.45
2023-02-03T08:19:44.308Z,6.50
2023-02-03T08:20:44.307Z,6.50
2023-02-03T08:21:44.313Z,6.47
2023-02-03T08:22:44.308Z,6.52
2023-02-03T08:23:44.281Z,6.43
2023-02-03T08:24:44.256Z,6.46
2023-02-03T08:25:44.248Z,6.56
2023-02-03T08:26:44.234Z,6.56
2023-02-03T08:27:44.294Z,6.60
2023-02-03T08:28:44.243Z,6.56
2023-02-03T08:29:44.228Z,6.53
2023-02-03T08:30:44.241Z,6.64
2023-02-03T08:31:44.343Z,6.60
2023-02-03T08:32:44.171Z,6.64
2023-02-03T08:33:44.191Z,6.68
2023-02-03T08:34:44.151Z,6.65
2023-02-03T08:35:44.145Z,6.64
2023-02-03T08:36:44.130Z,6.67
2023-02-03T08:37:44.116Z,6.64
2023-02-03T08:38:44.133Z,6.63
2023-02-03T08:39:44.097Z,6.68
2023-02-03T08:40:44.089Z,6.63
2023-02-03T08:41:44.074Z,6.67
2023-02-03T08:42:44.070Z,6.68
2023-02-03T08:43:44.074Z,6.65
2023-02-03T08:44:44.061Z,6.65
2023-02-03T08:45:44.138Z,6.81
2023-02-03T08:46:44.080Z,6.78
2023-02-03T08:47:44.034Z,6.78
2023-02-03T08:48:44.030Z,6.81
2023-02-03T08:49:43.984Z,6.74
2023-02-03T08:50:43.977Z,6.79
2023-02-03T08:51:44.908Z,6.78
2023-02-03T08:52:43.985Z,6.81
2023-02-03T08:53:43.940Z,6.81
2023-02-03T08:54:43.934Z,6.83
2023-02-03T08:55:43.919Z,6.78
2023-02-03T08:56:43.906Z,6.81
2023-02-03T08:57:43.928Z,6.85
2023-02-03T08:58:43.886Z,6.85
2023-02-03T08:59:43.896Z,6.88
2023-02-03T09:00:43.924Z,6.85
2023-02-03T09:01:43.858Z,6.88
2023-02-03T09:02:43.863Z,6.88
2023-02-03T09:03:43.855Z,6.92
2023-02-03T09:04:43.878Z,6.85
2023-02-03T09:05:43.817Z,6.92
2023-02-03T09:06:43.820Z,6.85
2023-02-03T09:07:43.830Z,6.93
2023-02-03T09:08:43.844Z,6.96
2023-02-03T09:09:43.808Z,6.99
2023-02-03T09:10:43.764Z,6.93
2023-02-03T09:11:43.749Z,7.01
2023-02-03T09:12:43.741Z,6.99
2023-02-03T09:13:43.760Z,7.00
2023-02-03T09:14:43.712Z,6.97
2023-02-03T09:15:43.703Z,6.96
2023-02-03T09:16:43.776Z,7.04
2023-02-03T09:17:43.679Z,7.07
2023-02-03T09:18:43.726Z,7.06
2023-02-03T09:19:43.715Z,6.96
2023-02-03T09:20:43.644Z,7.08
2023-02-03T09:21:47.907Z,7.13
2023-02-03T09:22:43.627Z,7.10
2023-02-03T09:23:43.619Z,7.01
2023-02-03T09:24:43.644Z,7.04
2023-02-03T09:25:46.711Z,7.08
2023-02-03T09:26:43.609Z,7.16
2023-02-03T09:27:43.619Z,7.18
2023-02-03T09:28:43.564Z,7.13
2023-02-03T09:29:43.556Z,7.15
2023-02-03T09:30:43.591Z,7.15
2023-02-03T09:31:43.640Z,7.19
2023-02-03T09:32:43.539Z,7.16
2023-02-03T09:33:43.515Z,7.18
2023-02-03T09:34:43.521Z,7.19
2023-02-03T09:35:43.511Z,7.15
2023-02-03T09:36:43.485Z,7.21
2023-02-03T09:37:43.494Z,7.19
2023-02-03T09:38:43.450Z,7.19
2023-02-03T09:39:43.442Z,7.21
2023-02-03T09:40:43.451Z,7.22
2023-02-03T09:41:43.421Z,7.21
2023-02-03T09:42:43.428Z,7.31
2023-02-03T09:43:43.402Z,7.25
2023-02-03T09:44:43.403Z,7.19
2023-02-03T09:45:43.405Z,7.25
2023-02-03T09:46:43.386Z,7.29
2023-02-03T09:47:43.407Z,7.25
2023-02-03T09:48:43.344Z,7.26
2023-02-03T09:49:43.328Z,7.29
2023-02-03T09:50:43.367Z,7.42
2023-02-03T09:51:43.314Z,7.37
2023-02-03T09:52:43.301Z,7.31
2023-02-03T09:53:43.288Z,7.40
2023-02-03T09:54:43.278Z,7.43
2023-02-03T09:55:43.313Z,7.46
2023-02-03T09:56:43.260Z,7.43
2023-02-03T09:57:43.253Z,7.39
2023-02-03T09:58:43.257Z,7.37
2023-02-03T09:59:43.237Z,7.43
2023-02-03T10:00:43.214Z,7.42
2023-02-03T10:01:43.257Z,7.43
2023-02-03T10:02:43.280Z,7.42
2023-02-03T10:03:43.201Z,7.49
2023-02-03T10:04:43.171Z,7.50
2023-02-03T10:05:43.252Z,7.50
2023-02-03T10:06:43.165Z,7.47
2023-02-03T10:07:43.146Z,7.47
2023-02-03T10:08:43.126Z,7.49
2023-02-03T10:09:43.136Z,7.47
2023-02-03T10:10:43.103Z,7.52
2023-02-03T10:11:43.096Z,7.50
2023-02-03T10:12:43.081Z,7.44
2023-02-03T10:13:43.072Z,7.49
2023-02-03T10:14:43.089Z,7.49
2023-02-03T10:15:43.055Z,7.55
2023-02-03T10:16:43.098Z,7.58
2023-02-03T10:17:43.032Z,7.58
2023-02-03T10:18:43.016Z,7.55
2023-02-03T10:19:43.041Z,7.61
2023-02-03T10:20:43.034Z,7.61
2023-02-03T10:21:42.983Z,7.73
2023-02-03T10:22:43.016Z,7.62
2023-02-03T10:23:42.979Z,7.66
2023-02-03T10:24:42.950Z,7.62
2023-02-03T10:25:43.007Z,7.66
2023-02-03T10:26:42.949Z,7.66
2023-02-03T10:27:42.952Z,7.64
2023-02-03T10:28:42.916Z,7.66
2023-02-03T10:29:42.943Z,7.68
2023-02-03T10:30:43.018Z,7.54
2023-02-03T10:31:43.035Z,7.77
2023-02-03T10:32:42.866Z,7.71
2023-02-03T10:33:42.848Z,7.77
2023-02-03T10:34:42.840Z,7.68
2023-02-03T10:35:42.883Z,7.76
2023-02-03T10:36:42.814Z,7.76
2023-02-03T10:37:42.818Z,7.74
2023-02-03T10:38:42.815Z,7.61
2023-02-03T10:39:42.800Z,7.69
2023-02-03T10:40:42.886Z,7.64
2023-02-03T10:41:42.765Z,7.69
2023-02-03T10:42:42.753Z,7.78
2023-02-03T10:43:42.775Z,7.73
2023-02-03T10:44:42.735Z,7.76
2023-02-03T10:45:42.741Z,7.76
2023-02-03T10:46:42.762Z,7.77
2023-02-03T10:47:42.711Z,7.83
2023-02-03T10:48:42.704Z,7.83
2023-02-03T10:49:43.515Z,7.78
2023-02-03T10:50:42.690Z,7.83
2023-02-03T10:51:42.654Z,7.78
2023-02-03T10:52:42.634Z,7.84
2023-02-03T10:53:42.663Z,7.83
2023-02-03T10:54:42.725Z,7.84
2023-02-03T10:55:42.641Z,7.88
2023-02-03T10:56:42.605Z,7.88
2023-02-03T10:57:42.587Z,7.78
2023-02-03T10:58:42.583Z,7.83
2023-02-03T10:59:42.599Z,7.86
2023-02-03T11:00:42.551Z,7.87
2023-02-03T11:01:42.696Z,7.86
2023-02-03T11:02:42.550Z,7.95
2023-02-03T11:03:42.523Z,7.86
2023-02-03T11:04:42.508Z,7.95
2023-02-03T11:05:43.492Z,7.87
2023-02-03T11:06:42.507Z,7.91
2023-02-03T11:07:42.475Z,7.86
2023-02-03T11:08:42.460Z,7.88
2023-02-03T11:09:42.451Z,7.87
2023-02-03T11:10:42.463Z,7.87
2023-02-03T11:11:42.459Z,7.91
2023-02-03T11:12:42.421Z,7.92
2023-02-03T11:13:42.408Z,7.87
2023-02-03T11:14:42.400Z,7.84
2023-02-03T11:15:42.431Z,7.92
2023-02-03T11:16:44.427Z,7.88
2023-02-03T11:17:42.391Z,7.84
2023-02-03T11:18:42.363Z,7.84
2023-02-03T11:19:42.340Z,7.91
2023-02-03T11:20:42.327Z,7.98
2023-02-03T11:21:42.355Z,7.95
2023-02-03T11:22:42.311Z,7.99
2023-02-03T11:23:42.302Z,7.98
2023-02-03T11:24:42.284Z,7.91
2023-02-03T11:25:42.290Z,7.92
2023-02-03T11:26:42.314Z,7.98
2023-02-03T11:27:42.284Z,7.98
2023-02-03T11:28:42.242Z,8.05
2023-02-03T11:29:42.244Z,8.05
2023-02-03T11:30:42.243Z,8.05
2023-02-03T11:31:42.511Z,8.10
2023-02-03T11:32:42.201Z,8.13
2023-02-03T11:33:42.188Z,8.12
2023-02-03T11:34:42.180Z,8.12
2023-02-03T11:35:42.179Z,8.13
2023-02-03T11:36:42.185Z,8.10
2023-02-03T11:37:42.180Z,8.13
2023-02-03T11:38:42.144Z,8.13
2023-02-03T11:39:42.137Z,8.14
2023-02-03T11:40:42.116Z,8.17
2023-02-03T11:41:42.101Z,8.13
2023-02-03T11:42:42.140Z,8.16
2023-02-03T11:43:42.087Z,8.23
2023-02-03T11:44:42.071Z,8.19
2023-02-03T11:45:42.147Z,8.21
2023-02-03T11:46:42.113Z,8.17
2023-02-03T11:47:42.075Z,8.20
2023-02-03T11:48:42.021Z,8.31
2023-02-03T11:49:42.013Z,8.28
2023-02-03T11:50:42.007Z,8.32
2023-02-03T11:51:41.992Z,8.29
2023-02-03T11:52:41.979Z,8.31
2023-02-03T11:53:55.208Z,8.38
2023-02-03T11:54:42.973Z,8.31
2023-02-03T11:55:41.954Z,8.39
2023-02-03T11:56:41.937Z,8.47
2023-02-03T11:57:41.956Z,8.50
2023-02-03T11:58:41.958Z,8.47
2023-02-03T11:59:41.909Z,8.50
2023-02-03T12:00:41.892Z,8.55
2023-02-03T12:01:41.891Z,8.59
2023-02-03T12:02:41.963Z,8.59
2023-02-03T12:03:41.893Z,8.60
2023-02-03T12:04:41.915Z,8.59
2023-02-03T12:05:41.860Z,8.65
2023-02-03T12:06:41.834Z,8.75
2023-02-03T12:07:41.818Z,8.70
2023-02-03T12:08:41.829Z,8.75
2023-02-03T12:09:41.794Z,8.80
2023-02-03T12:10:41.785Z,8.86
2023-02-03T12:11:41.772Z,8.83
2023-02-03T12:12:41.759Z,8.88
2023-02-03T12:13:41.771Z,8.93
2023-02-03T12:14:41.766Z,8.93
2023-02-03T12:15:41.734Z,8.92
2023-02-03T12:16:41.752Z,8.95
2023-02-03T12:17:41.720Z,8.95
2023-02-03T12:18:41.692Z,9.04
2023-02-03T12:19:41.689Z,8.89
2023-02-03T12:20:41.673Z,9.03
2023-02-03T12:21:41.689Z,9.03
2023-02-03T12:22:41.653Z,9.11
2023-02-03T12:23:41.640Z,9.09
2023-02-03T12:24:41.692Z,9.14
2023-02-03T12:25:41.620Z,9.14
2023-02-03T12:26:41.631Z,9.23
2023-02-03T12:27:42.463Z,9.14
2023-02-03T12:28:41.702Z,9.23
2023-02-03T12:29:41.576Z,9.24
2023-02-03T12:30:41.608Z,9.16
2023-02-03T12:31:41.646Z,9.12
2023-02-03T12:32:41.582Z,9.16
2023-02-03T12:33:41.532Z,9.24
2023-02-03T12:34:41.513Z,9.18
2023-02-03T12:35:41.518Z,9.18
2023-02-03T12:36:41.534Z,9.23
2023-02-03T12:37:41.493Z,9.22
2023-02-03T12:38:41.473Z,9.23
2023-02-03T12:39:41.480Z,9.15
2023-02-03T12:40:41.469Z,9.19
2023-02-03T12:41:41.480Z,9.27
2023-02-03T12:42:41.434Z,9.16
2023-02-03T12:43:41.420Z,9.18
2023-02-03T12:44:41.425Z,9.19
2023-02-03T12:45:41.470Z,9.32
2023-02-03T12:46:41.438Z,9.18
2023-02-03T12:47:41.381Z,9.24
2023-02-03T12:48:41.366Z,9.19
2023-02-03T12:49:41.382Z,9.18
2023-02-03T12:50:41.342Z,9.14
2023-02-03T12:51:41.337Z,9.15
2023-02-03T12:52:41.322Z,9.19
2023-02-03T12:53:41.311Z,9.22
2023-02-03T12:54:41.364Z,9.14
2023-02-03T12:55:41.297Z,9.18
2023-02-03T12:56:41.279Z,9.22
2023-02-03T12:57:41.269Z,9.19
2023-02-03T12:58:41.267Z,9.12
2023-02-03T12:59:41.248Z,9.12
2023-02-03T13:00:41.295Z,9.06
2023-02-03T13:01:41.223Z,9.09
2023-02-03T13:02:41.253Z,9.09
2023-02-03T13:03:41.225Z,9.12
2023-02-03T13:04:41.197Z,9.04
2023-02-03T13:05:41.205Z,9.09
2023-02-03T13:06:41.177Z,9.01
2023-02-03T13:07:41.186Z,9.08
2023-02-03T13:08:41.141Z,9.03
2023-02-03T13:09:41.141Z,8.96
2023-02-03T13:10:41.148Z,9.03
2023-02-03T13:11:41.114Z,9.03
2023-02-03T13:12:41.143Z,8.89
2023-02-03T13:13:41.092Z,8.92
2023-02-03T13:14:41.079Z,8.92
2023-02-03T13:15:41.067Z,8.92
2023-02-03T13:16:41.182Z,8.89
2023-02-03T13:17:41.073Z,8.90
2023-02-03T13:18:41.083Z,8.80